createdAt,value
2018-04-07T00:00:37.194Z,73.10
2018-04-07T00:03:05.579Z,72.60
2018-04-07T00:05:33.945Z,72.80
2018-04-07T00:08:02.290Z,73.80
2018-04-07T00:10:30.602Z,71.60
2018-04-07T00:12:58.930Z,65.80
2018-04-07T00:15:27.980Z,63.70
2018-04-07T00:17:56.295Z,63.60
2018-04-07T00:20:24.579Z,62.90
2018-04-07T00:22:52.896Z,62.10
2018-04-07T00:25:21.223Z,62.20
2018-04-07T00:27:49.738Z,63.10
2018-04-07T00:30:18.395Z,63.40
2018-04-07T00:32:46.992Z,62.60
2018-04-07T00:35:16.114Z,65.30
2018-04-07T00:37:45.628Z,65.50
2018-04-07T00:40:13.980Z,65.50
2018-04-07T00:42:42.408Z,66.70
2018-04-07T00:45:11.543Z,67.60
2018-04-07T00:47:39.865Z,67.60
2018-04-07T00:50:08.958Z,68.70
2018-04-07T00:52:49.079Z,68.50
2018-04-07T00:55:18.274Z,67.00
2018-04-07T00:57:46.823Z,66.90
2018-04-07T01:00:15.261Z,66.30
2018-04-07T01:02:43.830Z,66.10
2018-04-07T01:05:12.175Z,64.90
2018-04-07T01:07:41.982Z,64.40
2018-04-07T01:10:10.353Z,64.40
2018-04-07T01:12:39.406Z,63.90
2018-04-07T01:15:07.742Z,63.90
2018-04-07T01:17:36.029Z,63.90
2018-04-07T01:20:04.429Z,63.10
2018-04-07T01:22:32.845Z,63.20
2018-04-07T01:25:01.171Z,62.60
2018-04-07T01:27:29.451Z,62.00
2018-04-07T01:29:57.775Z,62.90
2018-04-07T01:32:26.158Z,62.20
2018-04-07T01:34:54.478Z,62.10
2018-04-07T01:37:22.867Z,60.80
2018-04-07T01:39:51.366Z,61.60
2018-04-07T01:42:19.975Z,61.50
2018-04-07T01:44:48.832Z,61.30
2018-04-07T01:47:17.395Z,63.10
2018-04-07T01:49:45.905Z,64.90
2018-04-07T01:52:14.791Z,65.40
2018-04-07T01:54:43.305Z,65.60
2018-04-07T01:57:11.839Z,64.60
2018-04-07T01:59:40.186Z,64.60
2018-04-07T02:02:09.287Z,63.40
2018-04-07T02:04:37.562Z,63.30
2018-04-07T02:07:05.960Z,63.60
2018-04-07T02:09:34.349Z,63.70
2018-04-07T02:12:03.702Z,63.60
2018-04-07T02:14:32.002Z,63.50
2018-04-07T02:17:00.438Z,64.70
2018-04-07T02:19:29.522Z,63.70
2018-04-07T02:21:57.806Z,63.70
2018-04-07T02:24:26.135Z,65.20
2018-04-07T02:26:54.451Z,63.80
2018-04-07T02:29:22.743Z,63.50
2018-04-07T02:31:51.109Z,63.20
2018-04-07T02:34:19.738Z,63.40
2018-04-07T02:36:48.615Z,62.70
2018-04-07T02:39:17.389Z,62.70
2018-04-07T02:41:45.782Z,62.00
2018-04-07T02:44:14.236Z,61.40
2018-04-07T02:46:42.912Z,61.80
2018-04-07T02:49:11.258Z,61.80
2018-04-07T02:51:39.912Z,63.00
2018-04-07T02:54:08.189Z,62.60
2018-04-07T02:56:36.471Z,62.50
2018-04-07T02:59:04.931Z,63.40
2018-04-07T03:01:34.345Z,64.30
2018-04-07T03:04:02.760Z,64.30
2018-04-07T03:06:31.146Z,64.30
2018-04-07T03:08:59.423Z,64.00
2018-04-07T03:11:28.063Z,64.50
2018-04-07T03:13:56.363Z,64.70
2018-04-07T03:16:24.647Z,65.80
2018-04-07T03:18:52.963Z,64.90
2018-04-07T03:21:21.307Z,64.90
2018-04-07T03:23:50.492Z,65.50
2018-04-07T03:26:18.799Z,65.40
2018-04-07T03:28:48.315Z,66.10
2018-04-07T03:31:16.683Z,66.10
2018-04-07T03:33:45.941Z,65.70
2018-04-07T03:36:14.567Z,65.60
2018-04-07T03:38:42.944Z,66.20
2018-04-07T03:41:11.290Z,66.80
2018-04-07T03:43:39.606Z,68.30
2018-04-07T03:46:07.900Z,68.60
2018-04-07T03:48:36.278Z,69.90
2018-04-07T03:51:04.868Z,70.90
2018-04-07T03:53:33.347Z,71.30
2018-04-07T03:56:01.686Z,71.80
2018-04-07T03:58:29.958Z,72.30
2018-04-07T04:00:58.290Z,72.80
2018-04-07T04:03:26.611Z,73.20
2018-04-07T04:05:54.930Z,73.40
2018-04-07T04:08:23.210Z,73.40
2018-04-07T04:10:51.859Z,74.00
2018-04-07T04:13:20.512Z,74.40
2018-04-07T04:15:49.105Z,74.90
2018-04-07T04:18:17.637Z,75.30
2018-04-07T04:20:46.910Z,74.20
2018-04-07T04:23:15.960Z,74.20
2018-04-07T04:25:44.610Z,73.50
2018-04-07T04:28:13.653Z,73.30
2018-04-07T04:30:42.261Z,73.30
2018-04-07T04:33:10.672Z,73.10
2018-04-07T04:35:39.749Z,72.70
2018-04-07T04:38:08.079Z,72.70
2018-04-07T04:40:37.504Z,71.80
2018-04-07T04:43:07.189Z,71.90
2018-04-07T04:45:35.603Z,71.90
2018-04-07T04:48:03.960Z,71.50
2018-04-07T04:50:32.334Z,71.30
2018-04-07T04:53:00.713Z,70.50
2018-04-07T04:55:29.030Z,70.40
2018-04-07T04:57:57.346Z,69.10
2018-04-07T05:00:25.628Z,68.60
2018-04-07T05:02:53.963Z,67.50
2018-04-07T05:05:23.032Z,64.20
2018-04-07T05:07:51.504Z,64.20
2018-04-07T05:10:20.225Z,63.80
2018-04-07T05:12:48.678Z,62.30
2018-04-07T05:15:17.250Z,62.90
2018-04-07T05:17:45.874Z,61.80
2018-04-07T05:20:14.283Z,60.90
2018-04-07T05:22:43.197Z,59.80
2018-04-07T05:25:11.668Z,59.70
2018-04-07T05:27:39.987Z,60.00
2018-04-07T05:30:08.274Z,59.90
2018-04-07T05:32:36.554Z,59.00
2018-04-07T05:35:05.739Z,58.00
2018-04-07T05:37:34.101Z,58.00
2018-04-07T05:40:02.452Z,57.60
2018-04-07T05:42:30.738Z,57.30
2018-04-07T05:44:59.062Z,57.20
2018-04-07T05:47:27.373Z,57.70
2018-04-07T05:49:55.692Z,56.80
2018-04-07T05:52:24.796Z,55.50
2018-04-07T05:54:53.087Z,55.50
2018-04-07T05:57:21.363Z,55.10
2018-04-07T05:59:49.677Z,55.30
2018-04-07T06:02:17.968Z,54.50
2018-04-07T06:04:46.291Z,53.90
2018-04-07T06:07:14.665Z,53.60
2018-04-07T06:09:43.039Z,53.50
2018-04-07T06:12:11.318Z,54.20
2018-04-07T06:14:39.641Z,53.70
2018-04-07T06:17:07.926Z,54.10
2018-04-07T06:19:37.020Z,54.10
2018-04-07T06:22:05.302Z,54.00
2018-04-07T06:24:33.602Z,53.40
2018-04-07T06:27:01.906Z,53.60
2018-04-07T06:29:30.193Z,52.60
2018-04-07T06:31:58.506Z,53.30
2018-04-07T06:34:26.817Z,52.80
2018-04-07T06:36:55.141Z,52.20
2018-04-07T06:39:23.470Z,52.50
2018-04-07T06:41:52.558Z,51.60
2018-04-07T06:44:20.854Z,51.60
2018-04-07T06:46:49.151Z,51.20
2018-04-07T06:49:17.520Z,50.80
2018-04-07T06:51:45.856Z,50.10
2018-04-07T06:54:14.298Z,48.20
2018-04-07T06:56:43.362Z,46.50
2018-04-07T06:59:11.684Z,46.50
2018-04-07T07:01:39.979Z,47.20
2018-04-07T07:04:08.307Z,46.20
2018-04-07T07:06:36.634Z,46.60
2018-04-07T07:09:05.735Z,45.20
2018-04-07T07:11:34.078Z,45.20
2018-04-07T07:14:02.428Z,43.80
2018-04-07T07:16:32.287Z,42.40
2018-04-07T07:19:00.846Z,42.40
2018-04-07T07:21:29.158Z,42.70
2018-04-07T07:23:57.594Z,43.50
2018-04-07T07:26:27.210Z,42.90
2018-04-07T07:28:57.842Z,41.80
2018-04-07T07:31:27.688Z,41.80
2018-04-07T07:33:56.286Z,41.90
2018-04-07T07:36:25.542Z,42.20
2018-04-07T07:38:54.433Z,42.60
2018-04-07T07:41:23.125Z,43.70
2018-04-07T07:43:52.074Z,43.40
2018-04-07T07:46:21.691Z,43.30
2018-04-07T07:48:51.832Z,43.40
2018-04-07T07:51:20.557Z,43.40
2018-04-07T07:53:48.926Z,41.90
2018-04-07T07:56:18.082Z,42.10
2018-04-07T07:58:46.494Z,42.10
2018-04-07T08:01:14.825Z,43.40
2018-04-07T08:03:43.879Z,42.70
2018-04-07T08:06:12.323Z,42.70
2018-04-07T08:08:40.606Z,41.70
2018-04-07T08:11:10.542Z,42.30
2018-04-07T08:13:38.987Z,42.90
2018-04-07T08:16:07.582Z,40.20
2018-04-07T08:18:36.400Z,39.70
2018-04-07T08:21:05.826Z,39.10
2018-04-07T08:23:34.324Z,39.70
2018-04-07T08:26:03.666Z,38.50
2018-04-07T08:28:33.361Z,39.40
2018-04-07T08:31:03.642Z,37.70
2018-04-07T08:33:33.652Z,37.70
2018-04-07T08:36:04.130Z,37.10
2018-04-07T08:38:33.539Z,38.10
2018-04-07T08:41:01.899Z,37.20
2018-04-07T08:43:30.748Z,37.10
2018-04-07T08:46:00.646Z,36.10
2018-04-07T08:48:29.618Z,36.90
2018-04-07T08:50:59.181Z,36.80
2018-04-07T08:53:29.296Z,37.50
2018-04-07T08:55:59.261Z,37.50
2018-04-07T08:58:30.268Z,36.80
2018-04-07T09:01:00.747Z,36.40
2018-04-07T09:03:30.033Z,36.40
2018-04-07T09:05:58.799Z,38.40
2018-04-07T09:08:27.978Z,36.20
2018-04-07T09:10:57.303Z,36.10
2018-04-07T09:13:25.846Z,36.10
2018-04-07T09:15:54.211Z,37.70
2018-04-07T09:18:22.694Z,38.70
2018-04-07T09:20:51.062Z,39.00
2018-04-07T09:23:19.391Z,39.30
2018-04-07T09:25:48.595Z,36.20
2018-04-07T09:28:17.087Z,36.20
2018-04-07T09:30:45.378Z,37.60
2018-04-07T09:33:13.665Z,36.70
2018-04-07T09:35:42.656Z,37.20
2018-04-07T09:38:11.698Z,36.60
2018-04-07T09:40:40.034Z,36.50
2018-04-07T09:43:08.333Z,35.90
2018-04-07T09:45:36.738Z,37.00
2018-04-07T09:48:05.033Z,36.90
2018-04-07T09:50:33.359Z,36.70
2018-04-07T09:53:01.655Z,34.10
2018-04-07T09:55:30.053Z,33.60
2018-04-07T09:57:58.383Z,34.00
2018-04-07T10:00:27.471Z,34.00
2018-04-07T10:03:01.697Z,33.90
2018-04-07T10:05:30.014Z,33.20
2018-04-07T10:07:58.294Z,33.00
2018-04-07T10:10:26.939Z,33.00
2018-04-07T10:12:55.320Z,33.70
2018-04-07T10:15:23.624Z,34.00
2018-04-07T10:17:51.991Z,32.60
2018-04-07T10:20:20.275Z,32.80
2018-04-07T10:22:49.357Z,33.00
2018-04-07T10:25:17.950Z,32.90
2018-04-07T10:27:46.245Z,32.30
2018-04-07T10:30:14.530Z,33.20
2018-04-07T10:32:42.858Z,32.10
2018-04-07T10:35:11.155Z,31.30
2018-04-07T10:37:39.480Z,31.90
2018-04-07T10:40:08.074Z,33.20
2018-04-07T10:42:36.367Z,32.40
2018-04-07T10:45:04.656Z,33.50
2018-04-07T10:47:32.970Z,32.80
2018-04-07T10:50:01.267Z,32.30
2018-04-07T10:52:29.599Z,33.10
2018-04-07T10:54:57.881Z,33.00
2018-04-07T10:57:26.219Z,32.70
2018-04-07T10:59:54.581Z,32.40
2018-04-07T11:02:22.900Z,31.10
2018-04-07T11:04:51.239Z,31.30
2018-04-07T11:07:20.293Z,33.40
2018-04-07T11:09:48.579Z,33.30
2018-04-07T11:12:16.913Z,32.00
2018-04-07T11:14:45.199Z,31.70
2018-04-07T11:17:14.796Z,30.60
2018-04-07T11:19:43.887Z,31.20
2018-04-07T11:22:12.213Z,31.20
2018-04-07T11:24:41.306Z,30.80
2018-04-07T11:27:09.629Z,30.60
2018-04-07T11:29:37.916Z,29.20
2018-04-07T11:32:06.241Z,30.80
2018-04-07T11:34:34.560Z,29.90
2018-04-07T11:37:03.267Z,31.10
2018-04-07T11:39:32.310Z,31.50
2018-04-07T11:42:00.633Z,31.50
2018-04-07T11:44:28.914Z,29.90
2018-04-07T11:46:57.337Z,30.70
2018-04-07T11:49:25.634Z,30.10
2018-04-07T11:51:54.163Z,29.60
2018-04-07T11:54:22.597Z,29.00
2018-04-07T11:56:51.714Z,29.40
2018-04-07T11:59:20.805Z,29.20
2018-04-07T12:01:49.123Z,29.10
2018-04-07T12:04:17.438Z,28.60
2018-04-07T12:06:46.527Z,27.80
2018-04-07T12:09:14.927Z,27.80
2018-04-07T12:11:43.261Z,28.20
2018-04-07T12:14:11.631Z,28.20
2018-04-07T12:16:39.919Z,28.90
2018-04-07T12:19:08.390Z,29.20
2018-04-07T12:21:37.439Z,28.80
2018-04-07T12:24:05.754Z,28.80
2018-04-07T12:26:34.083Z,29.40
2018-04-07T12:29:02.362Z,28.80
2018-04-07T12:31:30.977Z,28.10
2018-04-07T12:33:59.436Z,29.80
2018-04-07T12:36:27.675Z,29.40
2018-04-07T12:38:56.002Z,28.00
2018-04-07T12:41:24.335Z,28.20
2018-04-07T12:43:52.663Z,28.70
2018-04-07T12:46:21.312Z,28.80
2018-04-07T12:48:49.703Z,28.40
2018-04-07T12:51:17.990Z,28.10
2018-04-07T12:53:46.325Z,29.00
2018-04-07T12:56:14.655Z,28.40
2018-04-07T12:58:43.756Z,28.40
2018-04-07T13:01:12.073Z,28.30
2018-04-07T13:03:41.361Z,28.90
2018-04-07T13:06:09.651Z,28.90
2018-04-07T13:08:37.956Z,28.80
2018-04-07T13:11:06.274Z,28.20
2018-04-07T13:13:34.554Z,28.90
2018-04-07T13:16:02.849Z,29.70
2018-04-07T13:18:31.176Z,29.80
2018-04-07T13:20:59.491Z,28.80
2018-04-07T13:23:27.772Z,28.60
2018-04-07T13:25:56.145Z,28.20
2018-04-07T13:28:24.488Z,27.70
2018-04-07T13:30:52.898Z,28.50
2018-04-07T13:33:22.758Z,29.60
2018-04-07T13:35:51.091Z,29.60
2018-04-07T13:38:19.443Z,28.50
2018-04-07T13:40:47.767Z,28.30
2018-04-07T13:43:16.834Z,28.60
2018-04-07T13:45:45.148Z,28.70
2018-04-07T13:48:13.480Z,28.30
2018-04-07T13:50:41.763Z,28.90
2018-04-07T13:53:10.169Z,27.60
2018-04-07T13:55:39.982Z,28.00
2018-04-07T13:58:08.304Z,28.00
2018-04-07T14:00:36.589Z,28.90
2018-04-07T14:03:04.920Z,29.40
2018-04-07T14:05:33.407Z,27.80
2018-04-07T14:08:01.704Z,28.40
2018-04-07T14:10:29.978Z,28.20
2018-04-07T14:12:58.295Z,29.20
2018-04-07T14:15:26.578Z,29.00
2018-04-07T14:17:54.940Z,28.20
2018-04-07T14:20:24.062Z,28.70
2018-04-07T14:22:53.377Z,28.10
2018-04-07T14:25:22.549Z,28.40
2018-04-07T14:27:50.872Z,27.90
2018-04-07T14:30:19.193Z,28.20
2018-04-07T14:32:47.497Z,28.50
2018-04-07T14:35:15.828Z,28.80
2018-04-07T14:37:44.906Z,29.10
2018-04-07T14:40:13.219Z,29.10
2018-04-07T14:42:41.573Z,29.40
2018-04-07T14:45:09.898Z,28.20
2018-04-07T14:47:38.182Z,28.90
2018-04-07T14:50:06.479Z,28.60
2018-04-07T14:52:34.800Z,27.80
2018-04-07T14:55:03.120Z,28.20
2018-04-07T14:57:31.438Z,28.70
2018-04-07T14:59:59.729Z,28.50
2018-04-07T15:02:28.016Z,29.10
2018-04-07T15:04:56.347Z,28.50
2018-04-07T15:07:24.891Z,28.30
2018-04-07T15:09:53.371Z,28.20
2018-04-07T15:12:22.015Z,28.80
2018-04-07T15:14:50.310Z,28.60
2018-04-07T15:17:18.643Z,29.40
2018-04-07T15:19:47.015Z,29.50
2018-04-07T15:22:15.283Z,28.50
2018-04-07T15:24:43.578Z,29.30
2018-04-07T15:27:11.961Z,29.00
2018-04-07T15:29:40.695Z,29.00
2018-04-07T15:32:08.986Z,29.30
2018-04-07T15:34:37.291Z,29.80
2018-04-07T15:37:05.626Z,29.20
2018-04-07T15:39:34.727Z,28.50
2018-04-07T15:42:03.024Z,28.50
2018-04-07T15:44:31.351Z,28.20
2018-04-07T15:47:00.399Z,25.80
2018-04-07T15:49:28.682Z,25.70
2018-04-07T15:51:57.766Z,24.40
2018-04-07T15:54:26.054Z,24.40
2018-04-07T15:56:54.440Z,23.90
2018-04-07T15:59:22.759Z,24.40
2018-04-07T16:01:51.700Z,25.00
2018-04-07T16:04:20.006Z,25.40
2018-04-07T16:06:48.421Z,24.80
2018-04-07T16:09:17.641Z,24.00
2018-04-07T16:11:45.986Z,24.00
2018-04-07T16:14:14.510Z,24.90
2018-04-07T16:16:42.795Z,25.40
2018-04-07T16:19:12.018Z,26.10
2018-04-07T16:21:40.404Z,26.80
2018-04-07T16:24:08.732Z,27.30
2018-04-07T16:26:37.076Z,27.00
2018-04-07T16:29:05.549Z,27.00
2018-04-07T16:31:33.840Z,26.70
2018-04-07T16:34:02.285Z,27.40
2018-04-07T16:36:30.604Z,27.90
2018-04-07T16:38:59.663Z,27.90
2018-04-07T16:41:28.112Z,27.90
2018-04-07T16:43:56.609Z,28.90
2018-04-07T16:46:24.930Z,28.80
2018-04-07T16:48:53.230Z,29.30
2018-04-07T16:51:21.555Z,29.40
2018-04-07T16:53:49.921Z,29.70
2018-04-07T16:56:18.312Z,30.40
2018-04-07T16:58:46.632Z,31.20
2018-04-07T17:01:14.910Z,31.70
2018-04-07T17:03:44.344Z,32.40
2018-04-07T17:06:12.653Z,32.60
2018-04-07T17:08:42.449Z,33.50
2018-04-07T17:11:11.004Z,33.40
2018-04-07T17:13:40.795Z,34.00
2018-04-07T17:16:09.217Z,34.00
2018-04-07T17:18:37.538Z,34.10
2018-04-07T17:21:05.867Z,35.10
2018-04-07T17:23:34.913Z,35.60
2018-04-07T17:26:03.230Z,35.60
2018-04-07T17:28:31.521Z,35.60
2018-04-07T17:30:59.846Z,35.70
2018-04-07T17:33:28.125Z,36.50
2018-04-07T17:35:56.458Z,37.10
2018-04-07T17:38:24.761Z,37.70
2018-04-07T17:40:53.117Z,38.00
2018-04-07T17:43:21.413Z,38.00
2018-04-07T17:45:49.766Z,39.00
2018-04-07T17:48:18.054Z,39.50
2018-04-07T17:50:46.462Z,39.30
2018-04-07T17:53:14.776Z,39.10
2018-04-07T17:55:43.482Z,38.90
2018-04-07T17:58:11.802Z,39.30
2018-04-07T18:00:40.094Z,40.10
2018-04-07T18:03:08.377Z,40.80
2018-04-07T18:05:36.829Z,39.80
2018-04-07T18:08:05.130Z,39.70
2018-04-07T18:10:35.260Z,41.00
2018-04-07T18:13:03.548Z,40.90
2018-04-07T18:15:31.827Z,41.80
2018-04-07T18:18:00.153Z,42.30
2018-04-07T18:20:28.442Z,42.10
2018-04-07T18:22:56.946Z,42.90
2018-04-07T18:25:25.314Z,42.50
2018-04-07T18:27:53.660Z,42.00
2018-04-07T18:30:22.181Z,42.90
2018-04-07T18:32:50.588Z,42.70
2018-04-07T18:35:19.108Z,43.20
2018-04-07T18:37:47.502Z,42.60
2018-04-07T18:40:15.791Z,43.10
2018-04-07T18:42:44.070Z,42.90
2018-04-07T18:45:12.404Z,43.00
2018-04-07T18:47:40.697Z,43.30
2018-04-07T18:50:08.984Z,43.50
2018-04-07T18:52:37.306Z,44.20
2018-04-07T18:55:05.635Z,43.70
2018-04-07T18:57:33.951Z,43.80
2018-04-07T19:00:03.008Z,44.30
2018-04-07T19:02:31.298Z,44.30
2018-04-07T19:04:59.636Z,43.90
2018-04-07T19:07:27.923Z,44.30
2018-04-07T19:09:56.284Z,44.50
2018-04-07T19:12:25.600Z,44.90
2018-04-07T19:14:54.686Z,45.10
2018-04-07T19:17:23.187Z,45.10
2018-04-07T19:19:51.802Z,45.60
2018-04-07T19:22:20.111Z,45.50
2018-04-07T19:24:48.443Z,45.80
2018-04-07T19:27:17.530Z,45.40
2018-04-07T19:29:45.956Z,45.40
2018-04-07T19:32:14.282Z,45.40
2018-04-07T19:34:42.634Z,45.80
2018-04-07T19:37:10.998Z,45.70
2018-04-07T19:39:39.302Z,46.30
2018-04-07T19:42:07.635Z,46.10
2018-04-07T19:44:35.931Z,46.60
2018-04-07T19:47:04.272Z,46.60
2018-04-07T19:49:33.342Z,47.90
2018-04-07T19:52:01.825Z,47.20
2018-04-07T19:54:30.293Z,47.30
2018-04-07T19:56:58.662Z,48.00
2018-04-07T19:59:26.985Z,49.10
2018-04-07T20:01:55.308Z,49.20
2018-04-07T20:04:23.813Z,49.10
2018-04-07T20:06:52.145Z,50.20
2018-04-07T20:09:20.474Z,50.40
2018-04-07T20:11:48.786Z,50.00
2018-04-07T20:14:17.283Z,50.20
2018-04-07T20:16:45.574Z,49.80
2018-04-07T20:19:14.134Z,50.40
2018-04-07T20:21:42.440Z,49.40
2018-04-07T20:24:11.494Z,49.90
2018-04-07T20:26:39.856Z,49.80
2018-04-07T20:29:08.157Z,49.90
2018-04-07T20:31:36.508Z,50.30
2018-04-07T20:34:05.249Z,50.00
2018-04-07T20:36:33.604Z,50.00
2018-04-07T20:39:02.758Z,50.10
2018-04-07T20:41:31.068Z,50.00
2018-04-07T20:43:59.390Z,50.20
2018-04-07T20:46:27.695Z,50.30
2018-04-07T20:48:56.026Z,50.20
2018-04-07T20:51:25.811Z,50.60
2018-04-07T20:53:54.318Z,50.60
2018-04-07T20:56:22.731Z,50.80
2018-04-07T20:58:51.057Z,50.90
2018-04-07T21:01:19.354Z,51.20
2018-04-07T21:03:49.186Z,50.80
2018-04-07T21:06:17.511Z,50.70
2018-04-07T21:08:46.606Z,50.90
2018-04-07T21:11:14.899Z,51.00
2018-04-07T21:13:43.234Z,51.20
2018-04-07T21:16:12.342Z,51.40
2018-04-07T21:18:41.402Z,51.30
2018-04-07T21:21:09.698Z,51.30
2018-04-07T21:23:38.391Z,51.10
2018-04-07T21:26:07.485Z,51.50
2018-04-07T21:28:35.779Z,51.30
2018-04-07T21:31:04.106Z,51.60
2018-04-07T21:33:33.170Z,52.30
2018-04-07T21:36:01.468Z,52.30
2018-04-07T21:38:29.803Z,51.90
2018-04-07T21:40:58.100Z,52.60
2018-04-07T21:43:26.614Z,52.70
2018-04-07T21:45:54.927Z,52.90
2018-04-07T21:48:23.239Z,52.60
2018-04-07T21:50:51.586Z,52.60
2018-04-07T21:53:19.922Z,53.30
2018-04-07T21:55:48.310Z,52.80
2018-04-07T21:58:16.634Z,52.70
2018-04-07T22:00:44.927Z,53.10
2018-04-07T22:03:13.246Z,53.20
2018-04-07T22:05:41.542Z,53.50
2018-04-07T22:08:09.970Z,53.70
2018-04-07T22:10:38.312Z,53.60
2018-04-07T22:13:06.597Z,53.80
2018-04-07T22:15:34.935Z,54.10
2018-04-07T22:18:03.228Z,54.60
2018-04-07T22:20:31.531Z,54.40
2018-04-07T22:22:59.855Z,54.80
2018-04-07T22:25:28.190Z,55.00
2018-04-07T22:27:57.267Z,55.80
2018-04-07T22:30:25.593Z,55.70
2018-04-07T22:32:54.048Z,55.90
2018-04-07T22:35:22.386Z,56.80
2018-04-07T22:37:50.711Z,56.70
2018-04-07T22:40:19.030Z,56.50
2018-04-07T22:42:48.132Z,57.40
2018-04-07T22:45:16.418Z,57.30
2018-04-07T22:47:45.123Z,57.70
2018-04-07T22:50:13.522Z,58.00
2018-04-07T22:52:41.928Z,58.00
2018-04-07T22:55:10.267Z,57.70
2018-04-07T22:57:39.373Z,58.20
2018-04-07T23:00:09.258Z,58.10
2018-04-07T23:02:38.118Z,58.60
2018-04-07T23:05:06.456Z,58.00
2018-04-07T23:07:34.829Z,58.10
2018-04-07T23:10:04.091Z,58.30
2018-04-07T23:12:32.418Z,58.50
2018-04-07T23:15:00.747Z,58.30
2018-04-07T23:17:29.083Z,58.30
2018-04-07T23:19:58.183Z,58.50
2018-04-07T23:22:28.014Z,59.00
2018-04-07T23:24:56.319Z,58.90
2018-04-07T23:27:24.654Z,59.20
2018-04-07T23:29:52.982Z,59.50
2018-04-07T23:32:21.330Z,59.30
2018-04-07T23:34:49.710Z,59.60
2018-04-07T23:37:18.038Z,60.30
2018-04-07T23:39:47.101Z,59.80
2018-04-07T23:42:15.434Z,59.70
2018-04-07T23:44:43.722Z,59.90
2018-04-07T23:47:12.049Z,60.30
2018-04-07T23:49:41.191Z,60.90
2018-04-07T23:52:09.595Z,60.30
2018-04-07T23:54:37.931Z,61.30
2018-04-07T23:57:06.261Z,61.40
2018-04-07T23:59:34.578Z,61.50
